Time;durP1;ratioP1;P1;durP2;ratioP2;P2;SDS_P1;SDS_P2;PMS_P1;PMS_P2;Temp;Humidity;BMP_temperature;BMP_pressure;BME280_temperature;BME280_humidity;BME280_pressure;Samples;Min_cycle;Max_cycle;Signal;HPM_P1;HPM_P2
2022/11/07 00:02:23;;;;;;;97.03;49.08;;;;;;;;;;5072003;28;20033;-67
2022/11/07 00:04:49;;;;;;;17.38;7.32;;;;;;;;;;5077622;28;20020;-67
2022/11/07 00:07:16;;;;;;;36.22;6.28;;;;;;;;;;5089502;28;20028;-66
2022/11/07 00:09:43;;;;;;;8.07;5.28;;;;;;;;;;5081315;28;20042;-67
2022/11/07 00:12:09;;;;;;;8.27;4.72;;;;;;;;;;5075573;28;20454;-66
2022/11/07 00:14:36;;;;;;;8.07;4.75;;;;;;;;;;5086942;28;20028;-68
2022/11/07 00:17:03;;;;;;;6.00;4.22;;;;;;;;;;5079698;28;20029;-66
2022/11/07 00:19:30;;;;;;;7.32;4.10;;;;;;;;;;5084971;28;20133;-67
2022/11/07 00:21:56;;;;;;;6.78;3.42;;;;;;;;;;5076202;28;20093;-68
2022/11/07 00:24:25;;;;;;;4.13;2.60;;;;;;;;;;5087214;28;20085;-67
2022/11/07 00:26:52;;;;;;;3.78;2.42;;;;;;;;;;5087224;28;20032;-66
2022/11/07 00:29:19;;;;;;;4.15;2.72;;;;;;;;;;5084104;28;20032;-67
2022/11/07 00:31:46;;;;;;;6.35;3.83;;;;;;;;;;5080043;28;20027;-68
2022/11/07 00:34:13;;;;;;;4.97;3.75;;;;;;;;;;5084120;28;20024;-67
2022/11/07 00:36:40;;;;;;;9.93;4.80;;;;;;;;;;5076731;28;20096;-67
2022/11/07 00:39:07;;;;;;;7.18;4.82;;;;;;;;;;5083584;28;20032;-67
2022/11/07 00:41:33;;;;;;;8.57;4.10;;;;;;;;;;5069605;28;20086;-66
2022/11/07 00:44:00;;;;;;;8.27;4.80;;;;;;;;;;5078109;28;20020;-67
2022/11/07 00:46:27;;;;;;;4.97;3.47;;;;;;;;;;5088068;28;20120;-67
2022/11/07 00:48:54;;;;;;;6.13;3.23;;;;;;;;;;5085615;28;20028;-67
2022/11/07 00:51:25;;;;;;;5.27;3.87;;;;;;;;;;5072560;28;20064;-67
2022/11/07 00:53:52;;;;;;;4.27;2.73;;;;;;;;;;5074822;28;20033;-66
2022/11/07 00:56:20;;;;;;;8.43;5.37;;;;;;;;;;5080870;28;20091;-67
2022/11/07 00:58:47;;;;;;;5.20;3.13;;;;;;;;;;5085081;28;20099;-66
2022/11/07 01:01:18;;;;;;;6.83;2.40;;;;;;;;;;5084560;28;20451;-67
2022/11/07 01:06:32;;;;;;;4.93;3.03;;;;;;;;;;5085416;28;20377;-66
2022/11/07 01:08:59;;;;;;;7.43;3.50;;;;;;;;;;5091016;28;20103;-67
2022/11/07 01:11:26;;;;;;;4.20;3.13;;;;;;;;;;5084638;28;20027;-66
2022/11/07 01:13:56;;;;;;;3.67;2.43;;;;;;;;;;5094119;28;20030;-66
2022/11/07 01:16:23;;;;;;;8.07;4.47;;;;;;;;;;5090579;28;20024;-67
2022/11/07 01:18:50;;;;;;;5.13;2.87;;;;;;;;;;5078110;28;20029;-67
2022/11/07 01:21:18;;;;;;;6.63;3.93;;;;;;;;;;5088673;28;20024;-66
2022/11/07 01:23:45;;;;;;;4.33;3.23;;;;;;;;;;5088479;28;20071;-65
2022/11/07 01:26:13;;;;;;;2.97;1.90;;;;;;;;;;5087492;28;20057;-66
2022/11/07 01:28:40;;;;;;;4.80;3.23;;;;;;;;;;5083509;28;20433;-67
2022/11/07 01:31:09;;;;;;;6.00;3.17;;;;;;;;;;5082642;28;20107;-67
2022/11/07 01:33:36;;;;;;;3.47;2.53;;;;;;;;;;5082665;28;20077;-67
2022/11/07 01:36:04;;;;;;;3.20;2.30;;;;;;;;;;5089945;28;20021;-66
2022/11/07 01:38:30;;;;;;;9.30;3.50;;;;;;;;;;5092969;28;20032;-65
2022/11/07 01:43:50;;;;;;;3.53;2.63;;;;;;;;;;5081567;28;20067;-66
2022/11/07 01:46:16;;;;;;;;;;;;;;;;;;5077006;28;20099;-66
2022/11/07 01:48:47;;;;;;;4.77;2.77;;;;;;;;;;5088891;28;19963;-67
2022/11/07 01:51:15;;;;;;;7.13;3.57;;;;;;;;;;5090871;28;20021;-67
2022/11/07 01:53:41;;;;;;;7.93;4.23;;;;;;;;;;5093882;28;20047;-66
2022/11/07 01:56:11;;;;;;;6.57;3.80;;;;;;;;;;5058623;28;20029;-65
2022/11/07 01:58:40;;;;;;;3.73;2.63;;;;;;;;;;5064744;28;20107;-65
2022/11/07 02:01:07;;;;;;;6.47;3.70;;;;;;;;;;5073764;28;20108;-65
2022/11/07 02:03:34;;;;;;;6.07;2.43;;;;;;;;;;5069498;28;20035;-65
2022/11/07 02:06:03;;;;;;;5.53;3.10;;;;;;;;;;5068949;28;20053;-65
2022/11/07 02:08:32;;;;;;;4.70;3.60;;;;;;;;;;5065668;28;20024;-66
2022/11/07 02:11:01;;;;;;;8.27;2.70;;;;;;;;;;5067523;28;20048;-66
2022/11/07 02:13:29;;;;;;;4.73;2.97;;;;;;;;;;5069339;28;20036;-66
2022/11/07 02:15:56;;;;;;;3.87;2.67;;;;;;;;;;5074278;28;20481;-66
2022/11/07 02:18:23;;;;;;;4.57;3.00;;;;;;;;;;5072048;28;20032;-65
2022/11/07 02:20:51;;;;;;;8.47;3.60;;;;;;;;;;5073744;28;20390;-65
2022/11/07 02:23:21;;;;;;;4.00;1.93;;;;;;;;;;5068599;28;20278;-66
2022/11/07 02:25:48;;;;;;;5.10;1.43;;;;;;;;;;5071468;28;20101;-65
2022/11/07 02:28:15;;;;;;;6.70;4.40;;;;;;;;;;5066482;28;20047;-65
2022/11/07 02:30:42;;;;;;;7.13;3.43;;;;;;;;;;5066940;28;20060;-64
2022/11/07 02:33:19;;;;;;;4.67;2.80;;;;;;;;;;5067863;28;20056;-65
2022/11/07 02:35:52;;;;;;;5.37;3.07;;;;;;;;;;5059579;28;20021;-65
2022/11/07 02:38:19;;;;;;;3.00;2.33;;;;;;;;;;5073047;28;20021;-65
2022/11/07 02:40:47;;;;;;;5.33;2.67;;;;;;;;;;5068419;28;20029;-65
2022/11/07 02:43:15;;;;;;;4.83;2.63;;;;;;;;;;5070262;28;20040;-65
2022/11/07 02:45:44;;;;;;;2.87;2.30;;;;;;;;;;5055681;28;20025;-65
2022/11/07 02:48:11;;;;;;;2.87;2.07;;;;;;;;;;5062092;28;20427;-65
2022/11/07 02:50:38;;;;;;;5.97;2.43;;;;;;;;;;5067194;28;20029;-65
2022/11/07 02:53:05;;;;;;;4.67;2.67;;;;;;;;;;5059876;28;20037;-64
2022/11/07 02:55:32;;;;;;;4.80;2.80;;;;;;;;;;5064529;28;20035;-65
2022/11/07 02:57:58;;;;;;;3.80;2.67;;;;;;;;;;5053130;28;20037;-65
2022/11/07 03:00:25;;;;;;;5.93;2.33;;;;;;;;;;5067486;28;20451;-65
2022/11/07 03:02:52;;;;;;;2.97;2.30;;;;;;;;;;5069013;28;20477;-65
2022/11/07 03:05:19;;;;;;;2.97;2.00;;;;;;;;;;5072592;28;20111;-66
2022/11/07 03:07:47;;;;;;;4.97;3.10;;;;;;;;;;5072229;28;20068;-64
2022/11/07 03:10:14;;;;;;;4.63;2.70;;;;;;;;;;5071067;28;20449;-66
2022/11/07 03:12:41;;;;;;;2.13;1.73;;;;;;;;;;5067405;28;20043;-65
2022/11/07 03:15:09;;;;;;;2.23;1.50;;;;;;;;;;5066523;28;20076;-65
2022/11/07 03:17:35;;;;;;;5.07;2.27;;;;;;;;;;5067147;28;20345;-66
2022/11/07 03:20:02;;;;;;;4.27;2.80;;;;;;;;;;5066060;28;20517;-65
2022/11/07 03:22:29;;;;;;;6.00;2.97;;;;;;;;;;5072495;28;20021;-64
2022/11/07 03:24:56;;;;;;;4.10;2.50;;;;;;;;;;5072052;28;20028;-64
2022/11/07 03:27:23;;;;;;;3.67;2.33;;;;;;;;;;5071726;28;20059;-64
2022/11/07 03:29:50;;;;;;;3.10;2.00;;;;;;;;;;5072200;28;20082;-65
2022/11/07 03:32:17;;;;;;;3.57;2.40;;;;;;;;;;5071571;28;20063;-65
2022/11/07 03:34:44;;;;;;;3.83;2.27;;;;;;;;;;5060943;28;20076;-64
2022/11/07 03:37:10;;;;;;;2.40;1.70;;;;;;;;;;5055556;28;20502;-62
2022/11/07 03:39:37;;;;;;;3.53;2.57;;;;;;;;;;5065523;28;20012;-62
2022/11/07 03:42:04;;;;;;;5.73;1.90;;;;;;;;;;5067113;28;20082;-63
2022/11/07 03:44:31;;;;;;;3.53;2.13;;;;;;;;;;5070989;28;20029;-63
2022/11/07 03:46:57;;;;;;;4.27;2.60;;;;;;;;;;5072369;28;20563;-63
2022/11/07 03:49:24;;;;;;;2.33;1.83;;;;;;;;;;5070870;28;20799;-61
2022/11/07 03:51:51;;;;;;;4.10;2.37;;;;;;;;;;5065760;28;20120;-62
2022/11/07 03:54:18;;;;;;;4.33;2.90;;;;;;;;;;5072081;28;20427;-61
2022/11/07 03:56:44;;;;;;;3.93;1.70;;;;;;;;;;5066581;28;20537;-62
2022/11/07 03:59:11;;;;;;;4.30;1.90;;;;;;;;;;5067070;28;20025;-62
2022/11/07 04:01:38;;;;;;;5.27;3.17;;;;;;;;;;5065550;28;20028;-61
2022/11/07 04:04:04;;;;;;;2.20;1.90;;;;;;;;;;5066918;28;20036;-62
2022/11/07 04:06:31;;;;;;;2.00;1.53;;;;;;;;;;5069728;28;20055;-62
2022/11/07 04:08:58;;;;;;;3.07;2.20;;;;;;;;;;5072068;28;20158;-62
2022/11/07 04:19:39;;;;;;;2.50;1.97;;;;;;;;;;5066775;28;19914;-62
2022/11/07 04:22:06;;;;;;;6.33;2.33;;;;;;;;;;5064026;28;20074;-62
2022/11/07 04:24:33;;;;;;;1.90;1.70;;;;;;;;;;5065457;28;20116;-63
2022/11/07 04:29:44;;;;;;;4.32;2.30;;;;;;;;;;5070565;28;20036;-62
2022/11/07 04:32:11;;;;;;;5.20;2.37;;;;;;;;;;5069867;28;20098;-62
2022/11/07 04:34:38;;;;;;;4.27;2.30;;;;;;;;;;5071191;28;20059;-62
2022/11/07 04:37:04;;;;;;;3.70;2.33;;;;;;;;;;5070107;28;20398;-61
2022/11/07 04:39:31;;;;;;;3.60;2.37;;;;;;;;;;5065987;28;20387;-65
2022/11/07 04:41:58;;;;;;;3.60;2.53;;;;;;;;;;5046899;28;20384;-63
2022/11/07 04:44:24;;;;;;;4.50;2.37;;;;;;;;;;5067296;28;20025;-62
2022/11/07 04:46:51;;;;;;;3.63;2.53;;;;;;;;;;5069632;28;20398;-62
2022/11/07 04:49:18;;;;;;;4.57;2.70;;;;;;;;;;5070011;28;20054;-62
2022/11/07 04:51:44;;;;;;;5.13;1.80;;;;;;;;;;5075338;28;20090;-62
2022/11/07 04:54:12;;;;;;;1.77;1.53;;;;;;;;;;5075126;28;20068;-61
2022/11/07 04:56:39;;;;;;;3.40;2.43;;;;;;;;;;5075190;28;20094;-62
2022/11/07 04:59:06;;;;;;;2.57;1.97;;;;;;;;;;5075301;28;20036;-62
2022/11/07 05:01:32;;;;;;;5.03;2.33;;;;;;;;;;5075037;28;20033;-62
2022/11/07 05:03:59;;;;;;;3.13;2.30;;;;;;;;;;5069675;28;20081;-62
2022/11/07 05:06:26;;;;;;;4.97;3.10;;;;;;;;;;5069962;28;20067;-62
2022/11/07 05:08:53;;;;;;;3.50;2.33;;;;;;;;;;5069212;28;20041;-62
2022/11/07 05:11:19;;;;;;;19.07;3.33;;;;;;;;;;5069382;28;20075;-61
2022/11/07 05:13:46;;;;;;;5.70;2.63;;;;;;;;;;5074318;28;20020;-62
2022/11/07 05:16:16;;;;;;;4.27;2.53;;;;;;;;;;5075133;28;20539;-62
2022/11/07 05:18:42;;;;;;;2.27;1.90;;;;;;;;;;5074447;28;20024;-63
2022/11/07 05:21:09;;;;;;;3.43;1.87;;;;;;;;;;5075245;28;20016;-62
2022/11/07 05:23:35;;;;;;;2.80;1.80;;;;;;;;;;5074644;28;20048;-62
2022/11/07 05:26:02;;;;;;;3.00;2.23;;;;;;;;;;5070023;28;20056;-62
2022/11/07 05:28:30;;;;;;;4.97;3.03;;;;;;;;;;5069092;28;20036;-62
2022/11/07 05:31:01;;;;;;;3.63;2.23;;;;;;;;;;5069465;28;20029;-62
2022/11/07 05:33:28;;;;;;;3.83;2.80;;;;;;;;;;5069132;28;20143;-62
2022/11/07 05:35:55;;;;;;;5.43;2.97;;;;;;;;;;5073296;28;20032;-62
2022/11/07 05:38:21;;;;;;;4.33;2.77;;;;;;;;;;5074279;28;20032;-62
2022/11/07 05:40:48;;;;;;;3.23;2.60;;;;;;;;;;5074791;28;20056;-61
2022/11/07 05:43:15;;;;;;;4.63;3.17;;;;;;;;;;5074645;28;20028;-62
2022/11/07 05:45:42;;;;;;;5.30;2.80;;;;;;;;;;5073898;28;20056;-62
2022/11/07 05:48:10;;;;;;;10.97;3.13;;;;;;;;;;5069972;28;20052;-62
2022/11/07 05:50:37;;;;;;;5.00;3.33;;;;;;;;;;5069974;28;20096;-61
2022/11/07 05:53:03;;;;;;;4.20;2.50;;;;;;;;;;5068857;28;20024;-62
2022/11/07 05:55:31;;;;;;;4.40;3.00;;;;;;;;;;5068289;28;20066;-62
2022/11/07 05:57:57;;;;;;;3.47;2.23;;;;;;;;;;5071961;28;20029;-61
2022/11/07 06:00:24;;;;;;;4.43;3.43;;;;;;;;;;5074097;28;20025;-61
2022/11/07 06:02:59;;;;;;;5.10;3.03;;;;;;;;;;5073593;28;20024;-61
2022/11/07 06:05:25;;;;;;;;;;;;;;;;;;5074451;28;20125;-62
2022/11/07 06:07:52;;;;;;;5.47;2.63;;;;;;;;;;5073926;28;19917;-61
2022/11/07 06:10:19;;;;;;;4.53;3.30;;;;;;;;;;5070390;28;20028;-61
2022/11/07 06:12:45;;;;;;;2.80;2.33;;;;;;;;;;5068695;28;20103;-61
2022/11/07 06:15:12;;;;;;;3.97;3.03;;;;;;;;;;5068823;28;20028;-62
2022/11/07 06:17:39;;;;;;;3.13;1.50;;;;;;;;;;5068405;28;20020;-62
2022/11/07 06:20:06;;;;;;;3.37;2.80;;;;;;;;;;5070909;28;20082;-61
2022/11/07 06:22:32;;;;;;;4.00;2.53;;;;;;;;;;5073671;28;20089;-62
2022/11/07 06:24:59;;;;;;;5.50;3.43;;;;;;;;;;5074244;28;20017;-61
2022/11/07 06:27:26;;;;;;;3.60;2.23;;;;;;;;;;5073363;28;20032;-62
2022/11/07 06:29:52;;;;;;;8.50;2.70;;;;;;;;;;5073884;28;20028;-61
2022/11/07 06:32:19;;;;;;;4.57;2.50;;;;;;;;;;5070633;28;20410;-62
2022/11/07 06:34:46;;;;;;;6.07;3.63;;;;;;;;;;5067935;28;20547;-62
2022/11/07 06:37:12;;;;;;;3.53;2.73;;;;;;;;;;5067671;28;20028;-61
2022/11/07 06:39:39;;;;;;;4.00;3.07;;;;;;;;;;5068072;28;20098;-62
2022/11/07 06:42:05;;;;;;;5.47;3.43;;;;;;;;;;5070337;28;20028;-61
2022/11/07 06:44:32;;;;;;;2.83;1.97;;;;;;;;;;5073207;28;20021;-62
2022/11/07 06:46:59;;;;;;;5.70;2.57;;;;;;;;;;5073600;28;20642;-62
2022/11/07 06:49:25;;;;;;;4.83;3.47;;;;;;;;;;5073128;28;20039;-61
2022/11/07 06:51:52;;;;;;;2.70;2.00;;;;;;;;;;5073228;28;20024;-62
2022/11/07 06:54:19;;;;;;;3.53;2.97;;;;;;;;;;5070175;28;20039;-61
2022/11/07 06:56:45;;;;;;;16.00;3.93;;;;;;;;;;5067974;28;20016;-61
2022/11/07 06:59:12;;;;;;;5.27;3.67;;;;;;;;;;5067654;28;20093;-61
2022/11/07 07:01:39;;;;;;;3.70;2.60;;;;;;;;;;5067629;28;20519;-61
2022/11/07 07:04:05;;;;;;;4.73;2.40;;;;;;;;;;5068486;28;20082;-62
2022/11/07 07:06:32;;;;;;;14.03;2.43;;;;;;;;;;5073019;28;20363;-61
2022/11/07 07:08:59;;;;;;;3.43;2.47;;;;;;;;;;5071996;28;20116;-61
2022/11/07 07:11:25;;;;;;;4.43;2.97;;;;;;;;;;5072917;28;20380;-61
2022/11/07 07:13:52;;;;;;;2.97;2.47;;;;;;;;;;5073571;28;20372;-61
2022/11/07 07:16:19;;;;;;;4.17;2.67;;;;;;;;;;5071631;28;20511;-61
2022/11/07 07:18:45;;;;;;;2.50;2.13;;;;;;;;;;5067026;28;20102;-61
2022/11/07 07:21:13;;;;;;;5.37;2.60;;;;;;;;;;5067437;28;20035;-60
2022/11/07 07:23:41;;;;;;;6.07;2.73;;;;;;;;;;5066824;28;20111;-61
2022/11/07 07:26:09;;;;;;;4.77;1.97;;;;;;;;;;5067906;28;20136;-61
2022/11/07 07:28:36;;;;;;;3.40;2.77;;;;;;;;;;5072089;28;20111;-61
2022/11/07 07:31:29;;;;;;;2.00;1.80;;;;;;;;;;5072246;28;20029;-61
2022/11/07 07:33:56;;;;;;;3.93;3.03;;;;;;;;;;5068196;28;20028;-61
2022/11/07 07:36:23;;;;;;;3.90;2.93;;;;;;;;;;5072421;28;20498;-61
2022/11/07 07:38:50;;;;;;;3.47;2.47;;;;;;;;;;5070426;28;20103;-61
2022/11/07 07:41:18;;;;;;;2.53;2.03;;;;;;;;;;5066545;28;20035;-61
2022/11/07 07:43:44;;;;;;;2.73;2.27;;;;;;;;;;5067122;28;20095;-62
2022/11/07 07:46:14;;;;;;;3.53;2.70;;;;;;;;;;5067181;28;20024;-61
2022/11/07 07:48:40;;;;;;;2.77;1.80;;;;;;;;;;5067872;28;20028;-62
2022/11/07 07:51:07;;;;;;;3.53;2.43;;;;;;;;;;5072538;28;20028;-61
2022/11/07 07:53:34;;;;;;;4.17;2.63;;;;;;;;;;5072017;28;20039;-62
2022/11/07 07:56:04;;;;;;;5.73;2.60;;;;;;;;;;5071914;28;20025;-61
2022/11/07 07:58:31;;;;;;;2.83;2.33;;;;;;;;;;5072213;28;20017;-61
2022/11/07 08:00:57;;;;;;;1.47;1.17;;;;;;;;;;5070820;28;20112;-61
2022/11/07 08:03:24;;;;;;;2.97;2.63;;;;;;;;;;5066844;28;20016;-61
2022/11/07 08:05:52;;;;;;;4.47;1.90;;;;;;;;;;5066539;28;20072;-61
2022/11/07 08:08:19;;;;;;;3.10;2.23;;;;;;;;;;5066419;28;20028;-61
2022/11/07 08:10:52;;;;;;;3.37;2.37;;;;;;;;;;5067021;28;20035;-61
2022/11/07 08:13:20;;;;;;;4.03;1.53;;;;;;;;;;5071657;28;20421;-61
2022/11/07 08:15:46;;;;;;;3.37;2.43;;;;;;;;;;5071827;28;20059;-61
2022/11/07 08:18:13;;;;;;;3.33;2.67;;;;;;;;;;5071792;28;20024;-61
2022/11/07 08:20:40;;;;;;;3.90;2.27;;;;;;;;;;5072133;28;20411;-61
2022/11/07 08:23:08;;;;;;;1.80;1.57;;;;;;;;;;5070850;28;20028;-61
2022/11/07 08:25:35;;;;;;;1.93;1.37;;;;;;;;;;5066809;28;20036;-61
2022/11/07 08:28:02;;;;;;;1.93;1.67;;;;;;;;;;5066023;28;20041;-61
2022/11/07 08:30:30;;;;;;;2.57;1.87;;;;;;;;;;5066361;28;20387;-61
2022/11/07 08:33:00;;;;;;;2.53;2.10;;;;;;;;;;5066456;28;20093;-61
2022/11/07 08:35:27;;;;;;;3.87;2.53;;;;;;;;;;5071477;28;20021;-60
2022/11/07 08:37:54;;;;;;;1.83;1.50;;;;;;;;;;5071994;28;20017;-61
2022/11/07 08:40:20;;;;;;;3.60;2.43;;;;;;;;;;5071597;28;20028;-62
2022/11/07 08:42:48;;;;;;;3.40;1.40;;;;;;;;;;5071706;28;20070;-61
2022/11/07 08:45:14;;;;;;;1.53;1.17;;;;;;;;;;5052660;28;20426;-60
2022/11/07 08:47:41;;;;;;;1.90;1.50;;;;;;;;;;5066411;28;20040;-61
2022/11/07 08:50:08;;;;;;;2.40;2.03;;;;;;;;;;5066759;28;20487;-61
2022/11/07 08:52:35;;;;;;;3.80;2.00;;;;;;;;;;5066086;28;20021;-61
2022/11/07 08:55:03;;;;;;;3.37;2.23;;;;;;;;;;5066427;28;20032;-62
2022/11/07 08:57:30;;;;;;;6.57;3.33;;;;;;;;;;5071546;28;20029;-61
2022/11/07 08:59:56;;;;;;;4.97;1.50;;;;;;;;;;5071190;28;20025;-61
2022/11/07 09:02:23;;;;;;;3.37;2.73;;;;;;;;;;5070986;28;20044;-61
2022/11/07 09:04:50;;;;;;;2.20;1.70;;;;;;;;;;5071164;28;20055;-61
2022/11/07 09:07:16;;;;;;;2.20;1.63;;;;;;;;;;5071155;28;20045;-61
2022/11/07 09:09:43;;;;;;;3.73;2.87;;;;;;;;;;5066174;28;20455;-60
2022/11/07 09:12:10;;;;;;;1.43;1.20;;;;;;;;;;5066485;28;20035;-61
2022/11/07 09:14:36;;;;;;;2.97;1.83;;;;;;;;;;5065988;28;20056;-62
2022/11/07 09:17:03;;;;;;;2.80;1.97;;;;;;;;;;5066127;28;20059;-60
2022/11/07 09:19:30;;;;;;;2.00;1.70;;;;;;;;;;5069875;28;20421;-60
2022/11/07 09:21:57;;;;;;;2.73;1.83;;;;;;;;;;5071515;28;20028;-61
2022/11/07 09:24:23;;;;;;;1.80;1.60;;;;;;;;;;5071300;28;20028;-60
2022/11/07 09:26:50;;;;;;;5.27;2.33;;;;;;;;;;5070992;28;20451;-60
2022/11/07 09:29:17;;;;;;;2.13;1.63;;;;;;;;;;5071776;28;20032;-61
2022/11/07 09:31:43;;;;;;;2.83;2.07;;;;;;;;;;5068418;28;20032;-61
2022/11/07 09:34:10;;;;;;;1.70;1.43;;;;;;;;;;5069402;28;20040;-60
2022/11/07 09:36:37;;;;;;;3.13;1.67;;;;;;;;;;5069221;28;20144;-61
2022/11/07 09:39:03;;;;;;;6.27;2.03;;;;;;;;;;5069422;28;20028;-60
2022/11/07 09:41:35;;;;;;;1.17;1.07;;;;;;;;;;5073325;28;20024;-60
2022/11/07 09:44:01;;;;;;;4.63;2.80;;;;;;;;;;5074325;28;20016;-61
2022/11/07 09:46:47;;;;;;;1.90;1.63;;;;;;;;;;5074326;28;20020;-61
2022/11/07 09:49:23;;;;;;;2.67;1.67;;;;;;;;;;5073934;28;20552;-61
2022/11/07 09:51:52;;;;;;;2.73;2.07;;;;;;;;;;5056456;28;20033;-60
2022/11/07 09:54:20;;;;;;;2.93;2.00;;;;;;;;;;5068535;28;20498;-60
2022/11/07 09:56:47;;;;;;;2.10;1.53;;;;;;;;;;5069362;28;20024;-61
2022/11/07 09:59:37;;;;;;;1.60;1.13;;;;;;;;;;5069041;28;20074;-61
2022/11/07 10:02:11;;;;;;;1.10;1.00;;;;;;;;;;5056000;28;20364;-60
2022/11/07 10:04:38;;;;;;;17.00;2.35;;;;;;;;;;5073847;28;20074;-60
2022/11/07 10:07:08;;;;;;;4.23;2.10;;;;;;;;;;5074302;28;20371;-61
2022/11/07 10:09:40;;;;;;;3.07;1.40;;;;;;;;;;5073851;28;20028;-60
2022/11/07 10:12:19;;;;;;;3.57;1.87;;;;;;;;;;5068735;28;20043;-60
2022/11/07 10:15:13;;;;;;;2.90;2.20;;;;;;;;;;5072856;28;20033;-61
2022/11/07 10:17:55;;;;;;;0.80;0.77;;;;;;;;;;5067990;28;20035;-60
2022/11/07 10:20:27;;;;;;;2.23;1.83;;;;;;;;;;5068809;28;20035;-60
2022/11/07 10:23:10;;;;;;;2.33;1.50;;;;;;;;;;5068341;28;20418;-60
2022/11/07 10:25:39;;;;;;;1.97;1.77;;;;;;;;;;5070986;28;20021;-60
2022/11/07 10:28:06;;;;;;;1.87;1.43;;;;;;;;;;5073345;28;20025;-61
2022/11/07 10:30:34;;;;;;;3.13;2.07;;;;;;;;;;5073758;28;20039;-60
2022/11/07 10:33:19;;;;;;;2.13;1.43;;;;;;;;;;5073659;28;20031;-60
2022/11/07 10:35:48;;;;;;;1.25;1.15;;;;;;;;;;5073346;28;20029;-60
2022/11/07 10:38:21;;;;;;;2.77;1.73;;;;;;;;;;5069380;28;20032;-60
2022/11/07 10:40:49;;;;;;;1.57;1.23;;;;;;;;;;5068541;28;20057;-60
2022/11/07 10:43:27;;;;;;;1.83;1.20;;;;;;;;;;5067860;28;20036;-60
2022/11/07 10:45:55;;;;;;;1.10;0.90;;;;;;;;;;5067619;28;20040;-60
2022/11/07 10:48:21;;;;;;;3.17;1.87;;;;;;;;;;5071412;28;20032;-60
2022/11/07 10:50:55;;;;;;;1.97;1.50;;;;;;;;;;5072910;28;20420;-60
2022/11/07 10:53:22;;;;;;;4.93;1.77;;;;;;;;;;5073281;28;20738;-60
2022/11/07 10:55:50;;;;;;;1.57;1.20;;;;;;;;;;5073666;28;20027;-60
2022/11/07 10:58:23;;;;;;;1.40;1.07;;;;;;;;;;5073236;28;20107;-62
2022/11/07 11:01:09;;;;;;;0.80;0.73;;;;;;;;;;5068725;28;20032;-60
2022/11/07 11:03:46;;;;;;;1.00;0.83;;;;;;;;;;5067910;28;20052;-60
2022/11/07 11:06:18;;;;;;;2.83;1.07;;;;;;;;;;5067532;28;20030;-60
2022/11/07 11:08:46;;;;;;;1.57;1.27;;;;;;;;;;5068547;28;20033;-60
2022/11/07 11:11:14;;;;;;;1.37;1.20;;;;;;;;;;5072777;28;20023;-60
2022/11/07 11:13:41;;;;;;;1.77;1.43;;;;;;;;;;5072404;28;20063;-60
2022/11/07 11:16:20;;;;;;;1.40;0.97;;;;;;;;;;5072848;28;20412;-60
2022/11/07 11:18:50;;;;;;;1.47;1.17;;;;;;;;;;5072640;28;20020;-60
2022/11/07 11:21:18;;;;;;;2.37;1.57;;;;;;;;;;5072761;28;20371;-60
2022/11/07 11:23:45;;;;;;;1.13;0.80;;;;;;;;;;5066999;28;20055;-60
2022/11/07 11:26:19;;;;;;;4.30;1.63;;;;;;;;;;5067042;28;20031;-60
2022/11/07 11:28:48;;;;;;;2.50;1.20;;;;;;;;;;5067051;28;20561;-60
2022/11/07 11:31:34;;;;;;;1.70;1.13;;;;;;;;;;5067269;28;20056;-60
2022/11/07 11:34:25;;;;;;;0.97;0.87;;;;;;;;;;5072616;28;20096;-60
2022/11/07 11:36:57;;;;;;;1.10;0.80;;;;;;;;;;5056108;28;20021;-60
2022/11/07 11:39:28;;;;;;;0.60;0.60;;;;;;;;;;5072678;28;20414;-60
2022/11/07 11:41:58;;;;;;;0.90;0.70;;;;;;;;;;5072594;28;20034;-60
2022/11/07 11:44:31;;;;;;;0.87;0.80;;;;;;;;;;5069415;28;20513;-60
2022/11/07 11:46:58;;;;;;;1.63;1.27;;;;;;;;;;5066967;28;20418;-60
2022/11/07 11:49:30;;;;;;;1.13;0.90;;;;;;;;;;5066841;28;20085;-60
2022/11/07 11:52:02;;;;;;;1.63;1.23;;;;;;;;;;5067283;28;20029;-59
2022/11/07 11:54:28;;;;;;;2.33;1.43;;;;;;;;;;5068323;28;20020;-60
2022/11/07 11:57:04;;;;;;;2.73;1.57;;;;;;;;;;5071973;28;20020;-60
2022/11/07 11:59:37;;;;;;;1.60;1.30;;;;;;;;;;5072015;28;20035;-60
2022/11/07 12:02:22;;;;;;;1.63;1.10;;;;;;;;;;5072029;28;20024;-60
2022/11/07 12:04:55;;;;;;;0.80;0.70;;;;;;;;;;5071877;28;20032;-61
2022/11/07 12:07:21;;;;;;;1.73;1.30;;;;;;;;;;5068686;28;20395;-60
2022/11/07 12:09:56;;;;;;;1.30;1.10;;;;;;;;;;5066672;28;20033;-60
2022/11/07 12:12:23;;;;;;;1.88;1.40;;;;;;;;;;5066677;28;20032;-60
2022/11/07 12:14:57;;;;;;;1.30;1.20;;;;;;;;;;5066914;28;20021;-60
2022/11/07 12:17:23;;;;;;;0.77;0.77;;;;;;;;;;5070127;28;20109;-60
2022/11/07 12:19:58;;;;;;;2.67;1.67;;;;;;;;;;5071558;28;20028;-60
2022/11/07 12:22:31;;;;;;;1.48;1.05;;;;;;;;;;5072123;28;20021;-60
2022/11/07 12:25:06;;;;;;;2.70;1.63;;;;;;;;;;5071963;28;20032;-60
2022/11/07 12:27:33;;;;;;;1.17;0.87;;;;;;;;;;5071775;28;20059;-60
2022/11/07 12:30:00;;;;;;;1.10;0.93;;;;;;;;;;5067135;28;20056;-60
2022/11/07 12:32:26;;;;;;;1.10;0.90;;;;;;;;;;5066902;28;20520;-60
2022/11/07 12:35:31;;;;;;;2.40;1.43;;;;;;;;;;5066257;28;20028;-60
2022/11/07 12:38:03;;;;;;;0.93;0.67;;;;;;;;;;4955277;28;20117;-59
2022/11/07 12:40:39;;;;;;;0.93;0.70;;;;;;;;;;4970297;28;20027;-59
2022/11/07 12:43:11;;;;;;;1.03;0.93;;;;;;;;;;5029259;28;20045;-60
2022/11/07 12:45:44;;;;;;;4.53;2.43;;;;;;;;;;5071297;28;20048;-59
2022/11/07 12:48:23;;;;;;;0.87;0.80;;;;;;;;;;5071436;28;20025;-59
2022/11/07 12:50:59;;;;;;;2.43;1.60;;;;;;;;;;5070454;28;20131;-60
2022/11/07 12:53:26;;;;;;;2.30;1.80;;;;;;;;;;5065896;28;20028;-60
2022/11/07 12:55:57;;;;;;;2.20;1.53;;;;;;;;;;5066305;28;20068;-59
2022/11/07 12:58:28;;;;;;;2.33;1.60;;;;;;;;;;5066236;28;20021;-61
2022/11/07 13:00:56;;;;;;;2.43;1.60;;;;;;;;;;5066710;28;20326;-60
2022/11/07 13:03:33;;;;;;;1.40;1.17;;;;;;;;;;5071524;28;20324;-60
2022/11/07 13:05:59;;;;;;;1.53;1.33;;;;;;;;;;5072201;28;20272;-59
2022/11/07 13:08:39;;;;;;;1.83;1.60;;;;;;;;;;5074735;28;20343;-60
2022/11/07 13:11:15;;;;;;;2.77;1.97;;;;;;;;;;5074705;28;20091;-60
2022/11/07 13:13:50;;;;;;;4.00;1.77;;;;;;;;;;5072683;28;20325;-60
2022/11/07 13:16:25;;;;;;;4.23;2.23;;;;;;;;;;5069154;28;20265;-60
2022/11/07 13:18:52;;;;;;;5.50;2.20;;;;;;;;;;5059283;28;20356;-60
2022/11/07 13:21:19;;;;;;;2.97;2.03;;;;;;;;;;5069524;28;20419;-59
2022/11/07 13:23:47;;;;;;;2.80;1.77;;;;;;;;;;5071590;28;20028;-60
2022/11/07 13:26:14;;;;;;;4.63;1.80;;;;;;;;;;5074376;28;20033;-59
2022/11/07 13:28:42;;;;;;;2.10;1.67;;;;;;;;;;5074614;28;20094;-60
2022/11/07 13:31:27;;;;;;;4.70;2.40;;;;;;;;;;5074517;28;20482;-60
2022/11/07 13:34:08;;;;;;;5.13;3.13;;;;;;;;;;5067894;28;20021;-60
2022/11/07 13:36:35;;;;;;;3.93;2.43;;;;;;;;;;5071107;28;20107;-60
2022/11/07 13:39:04;;;;;;;3.57;2.73;;;;;;;;;;5069548;28;20021;-61
2022/11/07 13:41:31;;;;;;;3.93;2.70;;;;;;;;;;5068807;28;20021;-61
2022/11/07 13:44:02;;;;;;;3.43;2.07;;;;;;;;;;5069749;28;20035;-60
2022/11/07 13:46:35;;;;;;;2.97;2.20;;;;;;;;;;5072478;28;20408;-60
2022/11/07 13:49:11;;;;;;;5.50;2.77;;;;;;;;;;5074306;28;20036;-61
2022/11/07 13:51:41;;;;;;;3.33;2.83;;;;;;;;;;5074394;28;20029;-60
2022/11/07 13:54:11;;;;;;;4.43;3.07;;;;;;;;;;5073915;28;20040;-60
2022/11/07 13:56:41;;;;;;;5.63;3.03;;;;;;;;;;5073862;28;20033;-61
2022/11/07 13:59:24;;;;;;;5.43;3.13;;;;;;;;;;5069091;28;20123;-60
2022/11/07 14:01:54;;;;;;;2.60;2.03;;;;;;;;;;5068132;28;20513;-60
2022/11/07 14:04:21;;;;;;;4.57;3.13;;;;;;;;;;5060527;28;20468;-60
2022/11/07 14:06:49;;;;;;;6.07;2.93;;;;;;;;;;5052950;28;20031;-60
2022/11/07 14:09:18;;;;;;;4.80;3.00;;;;;;;;;;5065759;28;20040;-61
2022/11/07 14:11:46;;;;;;;3.30;2.53;;;;;;;;;;5064071;28;20021;-61
2022/11/07 14:14:13;;;;;;;14.80;4.07;;;;;;;;;;5073610;28;20387;-61
2022/11/07 14:16:40;;;;;;;4.57;3.03;;;;;;;;;;5065030;28;20025;-61
2022/11/07 14:19:13;;;;;;;7.77;3.63;;;;;;;;;;5056189;28;20456;-61
2022/11/07 14:21:43;;;;;;;5.73;3.57;;;;;;;;;;5054776;28;20033;-61
2022/11/07 14:24:26;;;;;;;5.00;2.80;;;;;;;;;;5048799;28;20040;-61
2022/11/07 14:27:04;;;;;;;4.97;2.83;;;;;;;;;;5062331;28;20036;-63
2022/11/07 14:29:31;;;;;;;8.07;3.43;;;;;;;;;;5055073;28;20053;-62
2022/11/07 14:31:59;;;;;;;9.43;3.50;;;;;;;;;;5059786;28;20060;-63
2022/11/07 14:34:26;;;;;;;13.17;3.40;;;;;;;;;;5069241;28;20025;-61
2022/11/07 14:36:55;;;;;;;5.43;3.83;;;;;;;;;;5072930;28;20039;-63
2022/11/07 14:39:23;;;;;;;4.77;3.63;;;;;;;;;;5064741;28;20566;-62
2022/11/07 14:41:50;;;;;;;3.40;2.60;;;;;;;;;;5060835;28;20437;-61
2022/11/07 14:44:25;;;;;;;5.10;3.37;;;;;;;;;;5060683;28;20082;-61
2022/11/07 14:46:52;;;;;;;4.90;3.20;;;;;;;;;;5063492;28;20092;-62
2022/11/07 14:49:24;;;;;;;10.23;4.47;;;;;;;;;;5061936;28;20033;-62
2022/11/07 14:51:51;;;;;;;7.97;3.03;;;;;;;;;;5057220;28;20025;-62
2022/11/07 14:54:20;;;;;;;8.27;3.37;;;;;;;;;;5066590;28;20017;-63
2022/11/07 14:56:49;;;;;;;5.17;2.97;;;;;;;;;;5062844;28;20017;-62
2022/11/07 14:59:17;;;;;;;2.57;2.13;;;;;;;;;;5065515;28;20013;-62
2022/11/07 15:01:57;;;;;;;3.70;2.70;;;;;;;;;;5071710;28;20029;-62
2022/11/07 15:04:35;;;;;;;7.27;3.30;;;;;;;;;;5058346;28;20024;-62
2022/11/07 15:07:20;;;;;;;7.33;2.97;;;;;;;;;;5067147;28;20028;-61
2022/11/07 15:09:47;;;;;;;3.75;2.85;;;;;;;;;;5066170;28;20032;-62
2022/11/07 15:12:21;;;;;;;4.20;2.73;;;;;;;;;;5060063;28;20029;-62